Česky Dansk Deutsch English Español Suomi Français Magyar Italiano Nederlands norsk Polski Português svenska Türkçe

 

Het Weer

Yangon (Myanmar)

17:00, 14 augustus 2016 (GMT)

NWNNE
WE
SWSSE
Thuis            
Yangon Mingaladon Pathein Moulmein Hpa-An Mae Sariang Prome Mae Sot Sandoway Tak Mae Hong Son Dawei Chiang Mai Lampang Kyaukpyu Coco Island Uttaradit Phitsanulok Nakhon Sawan Phrae Meiktila Kanchanaburi Sittwe

Om een weerknop op uw website of weblog te plaatsen, copieer onderstaande code en plak die in uw pagina. In het eerste vakje staat HTML-code, in het tweede vakje UBB-code.


Add to Google

Details

Windsnelheid:2 bf, 5 kn, 2.6 m/s, 5.8 miles/h, 9.3 km/h
Windrichting:NNW, 330°
Zicht: 4000 m, 4.0 km, 13123 ft, 2.5 miles
Wolken:Zwaar bewolkt op 1200 ft, 366 m
Licht bewolkt op 1600 ft, 488 m
Betrokken op 9000 ft, 2743 m
Het Weer:matige regen
Temperatuur:25°C, 77°F
Gevoelstemperatuur:26°C, 78°F
Dauwpunt:25°C, 77°F
Luchtdruk:1005 hPa, 753.8 mmHg, 29.68 inHg, 0.992 atm
Relative luchtvochtigheid:100.0 %
METAR:VYYY 141700Z 33005KT 4000 R21/2000N RA BKN012 FEW016CB OVC090 25/25 Q1005 CB SW

Snelkoppelingen

Actuele weersinformatie van de hele wereld. Voeg locaties toe met het plus (+) symbool. Deze snelkoppelingen kunnen worden toegevoegd aan Google.

Lid van de Technetium groep

website free tracking
StatCounter NetStat W3C Validator

12-08-2020 11:04:37
astro.technetium.be money.technetium.be phote.technetium.be tafeltennistafel.technetium.be www.ligfiets.net